sensor_id;sensor_type;location;lat;lon;timestamp;pressure;altitude;pressure_sealevel;temperature;humidity
4576;BME280;2300;51.874;8.430;2023-01-29T00:01:03;102187.34;;;-2.71;86.73
4576;BME280;2300;51.874;8.430;2023-01-29T00:03:29;102169.53;;;-2.85;86.62
4576;BME280;2300;51.874;8.430;2023-01-29T00:05:57;102180.06;;;-2.82;86.95
4576;BME280;2300;51.874;8.430;2023-01-29T00:08:23;102167.16;;;-2.90;87.56
4576;BME280;2300;51.874;8.430;2023-01-29T00:10:50;102162.28;;;-2.85;87.07
4576;BME280;2300;51.874;8.430;2023-01-29T00:13:17;102173.91;;;-2.84;87.59
4576;BME280;2300;51.874;8.430;2023-01-29T00:15:52;102171.47;;;-2.87;87.20
4576;BME280;2300;51.874;8.430;2023-01-29T00:18:18;102171.47;;;-2.87;87.63
4576;BME280;2300;51.874;8.430;2023-01-29T00:20:45;102131.47;;;-3.04;87.53
4576;BME280;2300;51.874;8.430;2023-01-29T00:23:13;102158.44;;;-2.93;87.46
4576;BME280;2300;51.874;8.430;2023-01-29T00:25:39;102151.06;;;-3.02;87.87
4576;BME280;2300;51.874;8.430;2023-01-29T00:28:06;102159.31;;;-3.05;87.73
4576;BME280;2300;51.874;8.430;2023-01-29T00:30:32;102162.56;;;-3.00;87.46
4576;BME280;2300;51.874;8.430;2023-01-29T00:32:59;102161.56;;;-2.99;87.93
4576;BME280;2300;51.874;8.430;2023-01-29T00:35:25;102166.94;;;-2.99;88.36
4576;BME280;2300;51.874;8.430;2023-01-29T00:37:53;102146.75;;;-3.05;88.48
4576;BME280;2300;51.874;8.430;2023-01-29T00:40:21;102162.78;;;-3.03;88.65
4576;BME280;2300;51.874;8.430;2023-01-29T00:42:48;102156.72;;;-2.94;88.36
4576;BME280;2300;51.874;8.430;2023-01-29T00:45:32;102168.00;;;-2.89;88.49
4576;BME280;2300;51.874;8.430;2023-01-29T00:48:01;102163.50;;;-2.89;87.79
4576;BME280;2300;51.874;8.430;2023-01-29T00:50:28;102145.44;;;-2.99;87.96
4576;BME280;2300;51.874;8.430;2023-01-29T00:52:54;102164.16;;;-2.85;87.90
4576;BME280;2300;51.874;8.430;2023-01-29T00:55:22;102168.00;;;-2.89;87.66
4576;BME280;2300;51.874;8.430;2023-01-29T00:57:49;102144.38;;;-2.97;87.71
4576;BME280;2300;51.874;8.430;2023-01-29T01:00:18;102127.06;;;-3.05;88.09
4576;BME280;2300;51.874;8.430;2023-01-29T01:02:44;102148.66;;;-2.94;87.62
4576;BME280;2300;51.874;8.430;2023-01-29T01:05:28;102148.38;;;-3.02;88.00
4576;BME280;2300;51.874;8.430;2023-01-29T01:07:56;102150.81;;;-2.99;87.78
4576;BME280;2300;51.874;8.430;2023-01-29T01:10:26;102158.34;;;-3.04;87.54
4576;BME280;2300;51.874;8.430;2023-01-29T01:12:54;102152.78;;;-3.01;87.82
4576;BME280;2300;51.874;8.430;2023-01-29T01:15:23;102141.28;;;-3.16;88.04
4576;BME280;2300;51.874;8.430;2023-01-29T01:17:53;102153.09;;;-3.06;87.70
4576;BME280;2300;51.874;8.430;2023-01-29T01:20:21;102145.69;;;-3.28;87.54
4576;BME280;2300;51.874;8.430;2023-01-29T01:22:47;102159.66;;;-3.10;88.11
4576;BME280;2300;51.874;8.430;2023-01-29T01:25:14;102150.94;;;-3.01;87.95
4576;BME280;2300;51.874;8.430;2023-01-29T01:27:43;102152.88;;;-3.03;88.77
4576;BME280;2300;51.874;8.430;2023-01-29T01:30:11;102136.41;;;-2.98;88.79
4576;BME280;2300;51.874;8.430;2023-01-29T01:32:37;102141.59;;;-2.95;89.18
4576;BME280;2300;51.874;8.430;2023-01-29T01:35:05;102128.25;;;-2.97;89.03
4576;BME280;2300;51.874;8.430;2023-01-29T01:37:32;102119.41;;;-2.99;89.41
4576;BME280;2300;51.874;8.430;2023-01-29T01:40:02;102108.91;;;-3.02;89.50
4576;BME280;2300;51.874;8.430;2023-01-29T01:42:30;102103.53;;;-3.02;89.83
4576;BME280;2300;51.874;8.430;2023-01-29T01:45:00;102094.16;;;-3.09;89.64
4576;BME280;2300;51.874;8.430;2023-01-29T01:47:33;102111.03;;;-2.94;90.25
4576;BME280;2300;51.874;8.430;2023-01-29T01:50:05;102111.25;;;-2.97;89.60
4576;BME280;2300;51.874;8.430;2023-01-29T01:52:35;102108.00;;;-2.90;89.75
4576;BME280;2300;51.874;8.430;2023-01-29T01:55:04;102103.94;;;-2.95;89.34
4576;BME280;2300;51.874;8.430;2023-01-29T01:57:31;102118.28;;;-2.71;89.45
4576;BME280;2300;51.874;8.430;2023-01-29T02:00:04;102112.28;;;-2.74;89.11
4576;BME280;2300;51.874;8.430;2023-01-29T02:02:35;102117.19;;;-2.68;89.14
4576;BME280;2300;51.874;8.430;2023-01-29T02:05:20;102117.41;;;-2.71;88.32
4576;BME280;2300;51.874;8.430;2023-01-29T02:08:04;102123.88;;;-2.74;88.72
4576;BME280;2300;51.874;8.430;2023-01-29T02:10:48;102133.97;;;-2.65;88.51
4576;BME280;2300;51.874;8.430;2023-01-29T02:13:15;102121.69;;;-2.69;88.60
4576;BME280;2300;51.874;8.430;2023-01-29T02:15:47;102114.22;;;-2.89;88.55
4576;BME280;2300;51.874;8.430;2023-01-29T02:18:15;102133.97;;;-2.65;88.83
4576;BME280;2300;51.874;8.430;2023-01-29T02:20:48;102037.97;;;-3.25;88.34
4576;BME280;2300;51.874;8.430;2023-01-29T02:23:30;102106.47;;;-2.81;88.52
4576;BME280;2300;51.874;8.430;2023-01-29T02:26:29;102136.75;;;-2.54;88.72
4576;BME280;2300;51.874;8.430;2023-01-29T02:29:06;102136.47;;;-2.74;88.73
4576;BME280;2300;51.874;8.430;2023-01-29T02:31:53;102145.19;;;-2.71;88.66
4576;BME280;2300;51.874;8.430;2023-01-29T02:34:31;102125.59;;;-2.73;88.69
4576;BME280;2300;51.874;8.430;2023-01-29T02:37:19;102135.91;;;-2.67;88.33
4576;BME280;2300;51.874;8.430;2023-01-29T02:39:51;102159.03;;;-2.64;88.45
4576;BME280;2300;51.874;8.430;2023-01-29T02:42:25;102157.66;;;-2.70;88.19
4576;BME280;2300;51.874;8.430;2023-01-29T02:44:58;102146.78;;;-2.68;88.17
4576;BME280;2300;51.874;8.430;2023-01-29T02:47:29;102134.63;;;-2.74;87.91
4576;BME280;2300;51.874;8.430;2023-01-29T02:50:03;102161.69;;;-2.52;87.89
4576;BME280;2300;51.874;8.430;2023-01-29T02:52:37;102134.25;;;-2.57;88.17
4576;BME280;2300;51.874;8.430;2023-01-29T02:55:12;102156.81;;;-2.47;87.58
4576;BME280;2300;51.874;8.430;2023-01-29T02:57:43;102156.47;;;-2.42;87.64
4576;BME280;2300;51.874;8.430;2023-01-29T03:00:15;102158.63;;;-2.34;87.26
4576;BME280;2300;51.874;8.430;2023-01-29T03:02:47;102164.63;;;-2.31;87.24
4576;BME280;2300;51.874;8.430;2023-01-29T03:05:21;102145.63;;;-2.41;87.09
4576;BME280;2300;51.874;8.430;2023-01-29T03:07:55;102159.06;;;-2.17;86.89
4576;BME280;2300;51.874;8.430;2023-01-29T03:10:27;102150.31;;;-2.31;86.83
4576;BME280;2300;51.874;8.430;2023-01-29T03:13:02;102146.13;;;-2.36;87.10
4576;BME280;2300;51.874;8.430;2023-01-29T03:15:37;102120.59;;;-2.54;87.10
4576;BME280;2300;51.874;8.430;2023-01-29T03:18:10;102140.78;;;-2.48;87.64
4576;BME280;2300;51.874;8.430;2023-01-29T03:20:41;102142.69;;;-2.38;87.80
4576;BME280;2300;51.874;8.430;2023-01-29T03:23:15;102154.72;;;-2.30;87.80
4576;BME280;2300;51.874;8.430;2023-01-29T03:25:49;102147.59;;;-2.31;87.42
4576;BME280;2300;51.874;8.430;2023-01-29T03:28:34;102133.44;;;-2.33;87.61
4576;BME280;2300;51.874;8.430;2023-01-29T03:31:19;102147.44;;;-2.17;87.55
4576;BME280;2300;51.874;8.430;2023-01-29T03:34:07;102142.78;;;-2.15;87.26
4576;BME280;2300;51.874;8.430;2023-01-29T03:36:43;102137.25;;;-2.25;86.83
4576;BME280;2300;51.874;8.430;2023-01-29T03:39:15;102136.97;;;-2.09;87.08
4576;BME280;2300;51.874;8.430;2023-01-29T03:41:46;102128.59;;;-2.17;86.56
4576;BME280;2300;51.874;8.430;2023-01-29T03:44:18;102133.28;;;-2.08;86.33
4576;BME280;2300;51.874;8.430;2023-01-29T03:46:53;102134.97;;;-2.18;86.36
4576;BME280;2300;51.874;8.430;2023-01-29T03:49:28;102132.84;;;-2.02;86.55
4576;BME280;2300;51.874;8.430;2023-01-29T03:52:00;102136.03;;;-1.97;86.24
4576;BME280;2300;51.874;8.430;2023-01-29T03:54:37;102128.13;;;-2.11;86.62
4576;BME280;2300;51.874;8.430;2023-01-29T03:57:12;102144.28;;;-2.11;86.42
4576;BME280;2300;51.874;8.430;2023-01-29T03:59:46;102110.34;;;-2.25;86.60
4576;BME280;2300;51.874;8.430;2023-01-29T04:02:19;102130.09;;;-2.13;86.43
4576;BME280;2300;51.874;8.430;2023-01-29T04:04:54;102112.97;;;-2.36;86.56
4576;BME280;2300;51.874;8.430;2023-01-29T04:07:23;102140.41;;;-2.07;86.25
4576;BME280;2300;51.874;8.430;2023-01-29T04:09:54;102081.06;;;-2.53;86.08
4576;BME280;2300;51.874;8.430;2023-01-29T04:12:24;102129.13;;;-2.12;86.71
4576;BME280;2300;51.874;8.430;2023-01-29T04:14:52;102071.31;;;-2.54;85.95
4576;BME280;2300;51.874;8.430;2023-01-29T04:17:26;102116.59;;;-2.24;86.14
4576;BME280;2300;51.874;8.430;2023-01-29T04:19:58;102075.59;;;-2.52;86.58
4576;BME280;2300;51.874;8.430;2023-01-29T04:22:30;102111.59;;;-2.18;86.76
4576;BME280;2300;51.874;8.430;2023-01-29T04:24:57;102117.44;;;-2.24;86.68
4576;BME280;2300;51.874;8.430;2023-01-29T04:27:33;102099.06;;;-2.30;86.71
4576;BME280;2300;51.874;8.430;2023-01-29T04:30:10;102091.34;;;-2.34;86.90
4576;BME280;2300;51.874;8.430;2023-01-29T04:32:54;102075.09;;;-2.33;86.82
4576;BME280;2300;51.874;8.430;2023-01-29T04:35:29;102057.81;;;-2.30;87.24
4576;BME280;2300;51.874;8.430;2023-01-29T04:38:05;102055.25;;;-2.32;87.30
4576;BME280;2300;51.874;8.430;2023-01-29T04:40:38;101992.47;;;-2.67;87.41
4576;BME280;2300;51.874;8.430;2023-01-29T04:43:08;102045.28;;;-2.43;87.35
4576;BME280;2300;51.874;8.430;2023-01-29T04:45:49;102034.25;;;-2.51;87.49
4576;BME280;2300;51.874;8.430;2023-01-29T04:48:27;102034.66;;;-2.44;87.35
4576;BME280;2300;51.874;8.430;2023-01-29T04:51:01;102043.69;;;-2.45;87.56
4576;BME280;2300;51.874;8.430;2023-01-29T04:53:36;102030.59;;;-2.50;87.55
4576;BME280;2300;51.874;8.430;2023-01-29T04:56:16;102020.31;;;-2.56;88.31
4576;BME280;2300;51.874;8.430;2023-01-29T04:58:48;101986.66;;;-2.61;88.40
4576;BME280;2300;51.874;8.430;2023-01-29T05:01:18;101987.56;;;-2.50;88.49
4576;BME280;2300;51.874;8.430;2023-01-29T05:03:49;101988.06;;;-2.45;88.26
4576;BME280;2300;51.874;8.430;2023-01-29T05:06:17;101988.06;;;-2.45;88.04
4576;BME280;2300;51.874;8.430;2023-01-29T05:08:46;101989.13;;;-2.47;87.95
4576;BME280;2300;51.874;8.430;2023-01-29T05:11:15;101990.09;;;-2.48;87.84
4576;BME280;2300;51.874;8.430;2023-01-29T05:13:42;101997.88;;;-2.32;88.21
4576;BME280;2300;51.874;8.430;2023-01-29T05:16:12;101991.81;;;-2.47;87.61
4576;BME280;2300;51.874;8.430;2023-01-29T05:18:39;101998.25;;;-2.26;87.74
4576;BME280;2300;51.874;8.430;2023-01-29T05:21:08;102005.72;;;-2.29;87.15
4576;BME280;2300;51.874;8.430;2023-01-29T05:23:35;102011.75;;;-2.15;87.17
4576;BME280;2300;51.874;8.430;2023-01-29T05:26:02;102020.47;;;-2.00;87.23
4576;BME280;2300;51.874;8.430;2023-01-29T05:28:29;102021.56;;;-2.03;86.53
4576;BME280;2300;51.874;8.430;2023-01-29T05:30:55;102025.34;;;-2.05;86.01
4576;BME280;2300;51.874;8.430;2023-01-29T05:33:23;102046.19;;;-1.85;86.03
4576;BME280;2300;51.874;8.430;2023-01-29T05:35:50;102041.09;;;-1.77;85.45
4576;BME280;2300;51.874;8.430;2023-01-29T05:38:18;102050.38;;;-1.70;85.46
4576;BME280;2300;51.874;8.430;2023-01-29T05:40:45;102052.09;;;-1.80;85.17
4576;BME280;2300;51.874;8.430;2023-01-29T05:43:16;102022.44;;;-1.91;85.18
4576;BME280;2300;51.874;8.430;2023-01-29T05:45:43;102052.34;;;-1.72;85.48
4576;BME280;2300;51.874;8.430;2023-01-29T05:48:16;102056.78;;;-1.71;85.48
4576;BME280;2300;51.874;8.430;2023-01-29T05:50:43;102050.03;;;-1.54;85.56
4576;BME280;2300;51.874;8.430;2023-01-29T05:53:09;102053.59;;;-1.54;84.70
4576;BME280;2300;51.874;8.430;2023-01-29T05:55:37;102046.22;;;-1.74;84.94
4576;BME280;2300;51.874;8.430;2023-01-29T05:58:03;102050.38;;;-1.70;85.29
4576;BME280;2300;51.874;8.430;2023-01-29T06:00:30;102058.47;;;-1.70;86.04
4576;BME280;2300;51.874;8.430;2023-01-29T06:02:57;102061.81;;;-1.66;85.91
4576;BME280;2300;51.874;8.430;2023-01-29T06:05:24;102070.75;;;-1.66;85.97
4576;BME280;2300;51.874;8.430;2023-01-29T06:07:50;102083.22;;;-1.54;85.78
4576;BME280;2300;51.874;8.430;2023-01-29T06:10:17;102082.00;;;-1.50;85.36
4576;BME280;2300;51.874;8.430;2023-01-29T06:12:45;102062.63;;;-1.77;85.51
4576;BME280;2300;51.874;8.430;2023-01-29T06:15:12;102057.47;;;-1.80;86.00
4576;BME280;2300;51.874;8.430;2023-01-29T06:17:39;102061.66;;;-1.65;86.24
4576;BME280;2300;51.874;8.430;2023-01-29T06:20:08;102060.19;;;-1.69;86.18
4576;BME280;2300;51.874;8.430;2023-01-29T06:22:34;102062.38;;;-1.74;86.34
4576;BME280;2300;51.874;8.430;2023-01-29T06:25:01;102051.38;;;-1.82;86.54
4576;BME280;2300;51.874;8.430;2023-01-29T06:27:27;102004.75;;;-2.17;86.51
4576;BME280;2300;51.874;8.430;2023-01-29T06:29:55;102048.66;;;-1.82;86.72
4576;BME280;2300;51.874;8.430;2023-01-29T06:32:22;102050.13;;;-1.78;87.28
4576;BME280;2300;51.874;8.430;2023-01-29T06:34:48;102041.31;;;-1.80;87.16
4576;BME280;2300;51.874;8.430;2023-01-29T06:37:14;102077.94;;;-1.55;86.92
4576;BME280;2300;51.874;8.430;2023-01-29T06:39:41;102075.88;;;-1.63;86.31
4576;BME280;2300;51.874;8.430;2023-01-29T06:42:08;102075.09;;;-1.76;86.75
4576;BME280;2300;51.874;8.430;2023-01-29T06:44:35;102081.72;;;-1.80;87.33
4576;BME280;2300;51.874;8.430;2023-01-29T06:47:03;102085.19;;;-1.67;86.93
4576;BME280;2300;51.874;8.430;2023-01-29T06:49:29;102078.56;;;-1.63;86.75
4576;BME280;2300;51.874;8.430;2023-01-29T06:51:56;102079.44;;;-1.62;86.63
4576;BME280;2300;51.874;8.430;2023-01-29T06:54:22;102083.00;;;-1.62;86.93
4576;BME280;2300;51.874;8.430;2023-01-29T06:56:49;102081.00;;;-1.60;86.98
4576;BME280;2300;51.874;8.430;2023-01-29T06:59:15;102080.03;;;-1.70;86.78
4576;BME280;2300;51.874;8.430;2023-01-29T07:01:41;102075.25;;;-1.55;86.67
4576;BME280;2300;51.874;8.430;2023-01-29T07:04:09;102050.75;;;-1.74;87.12
4576;BME280;2300;51.874;8.430;2023-01-29T07:06:36;102070.97;;;-1.58;86.81
4576;BME280;2300;51.874;8.430;2023-01-29T07:09:03;102057.97;;;-1.64;86.78
4576;BME280;2300;51.874;8.430;2023-01-29T07:11:30;102046.00;;;-1.71;87.02
4576;BME280;2300;51.874;8.430;2023-01-29T07:13:56;102067.44;;;-1.58;87.03
4576;BME280;2300;51.874;8.430;2023-01-29T07:16:23;102066.56;;;-1.59;87.11
4576;BME280;2300;51.874;8.430;2023-01-29T07:18:50;102057.97;;;-1.64;87.38
4576;BME280;2300;51.874;8.430;2023-01-29T07:21:18;102060.94;;;-1.56;87.50
4576;BME280;2300;51.874;8.430;2023-01-29T07:23:44;102056.06;;;-1.51;87.05
4576;BME280;2300;51.874;8.430;2023-01-29T07:26:11;102060.81;;;-1.54;87.52
4576;BME280;2300;51.874;8.430;2023-01-29T07:28:38;102029.09;;;-1.73;87.42
4576;BME280;2300;51.874;8.430;2023-01-29T07:31:05;102075.91;;;-1.40;87.29
4576;BME280;2300;51.874;8.430;2023-01-29T07:33:33;102069.88;;;-1.44;87.38
4576;BME280;2300;51.874;8.430;2023-01-29T07:35:59;102078.09;;;-1.45;87.57
4576;BME280;2300;51.874;8.430;2023-01-29T07:38:27;102082.63;;;-1.46;87.66
4576;BME280;2300;51.874;8.430;2023-01-29T07:40:53;102070.88;;;-1.34;87.80
4576;BME280;2300;51.874;8.430;2023-01-29T07:43:20;102062.66;;;-1.43;87.67
4576;BME280;2300;51.874;8.430;2023-01-29T07:45:48;102069.75;;;-1.42;87.46
4576;BME280;2300;51.874;8.430;2023-01-29T07:48:15;102051.50;;;-1.39;87.82
4576;BME280;2300;51.874;8.430;2023-01-29T07:50:41;102050.16;;;-1.44;87.44
4576;BME280;2300;51.874;8.430;2023-01-29T07:53:11;102047.47;;;-1.33;87.39
4576;BME280;2300;51.874;8.430;2023-01-29T07:55:40;102052.38;;;-1.16;86.93
4576;BME280;2300;51.874;8.430;2023-01-29T07:58:08;102055.56;;;-1.22;86.51
4576;BME280;2300;51.874;8.430;2023-01-29T08:00:35;102051.88;;;-1.21;86.52
4576;BME280;2300;51.874;8.430;2023-01-29T08:03:02;102050.03;;;-1.10;86.44
4576;BME280;2300;51.874;8.430;2023-01-29T08:05:29;102033.28;;;-1.24;86.74
4576;BME280;2300;51.874;8.430;2023-01-29T08:07:55;102036.69;;;-1.22;86.94
4576;BME280;2300;51.874;8.430;2023-01-29T08:10:22;102008.84;;;-1.23;87.05
4576;BME280;2300;51.874;8.430;2023-01-29T08:12:54;102018.28;;;-1.17;86.79
4576;BME280;2300;51.874;8.430;2023-01-29T08:15:21;102024.03;;;-1.11;86.62
4576;BME280;2300;51.874;8.430;2023-01-29T08:17:47;102022.31;;;-1.12;87.31
4576;BME280;2300;51.874;8.430;2023-01-29T08:20:14;102026.00;;;-1.13;86.85
4576;BME280;2300;51.874;8.430;2023-01-29T08:22:40;102016.66;;;-1.09;86.21
4576;BME280;2300;51.874;8.430;2023-01-29T08:25:07;102014.34;;;-1.13;86.68
4576;BME280;2300;51.874;8.430;2023-01-29T08:27:34;101991.03;;;-1.03;86.55
4576;BME280;2300;51.874;8.430;2023-01-29T08:30:02;101996.41;;;-0.92;86.65
4576;BME280;2300;51.874;8.430;2023-01-29T08:32:29;101967.81;;;-1.15;86.62
4576;BME280;2300;51.874;8.430;2023-01-29T08:34:55;101991.41;;;-0.96;86.19
4576;BME280;2300;51.874;8.430;2023-01-29T08:37:22;101959.69;;;-1.04;86.49
4576;BME280;2300;51.874;8.430;2023-01-29T08:39:48;101984.09;;;-0.74;86.24
4576;BME280;2300;51.874;8.430;2023-01-29T08:42:15;101970.81;;;-0.97;85.84
4576;BME280;2300;51.874;8.430;2023-01-29T08:44:41;101981.94;;;-0.91;86.14
4576;BME280;2300;51.874;8.430;2023-01-29T08:47:09;101996.97;;;-0.77;86.47
4576;BME280;2300;51.874;8.430;2023-01-29T08:49:35;101978.69;;;-1.05;85.69
4576;BME280;2300;51.874;8.430;2023-01-29T08:52:02;101996.50;;;-0.82;85.58
4576;BME280;2300;51.874;8.430;2023-01-29T08:54:28;101996.63;;;-0.73;85.57
4576;BME280;2300;51.874;8.430;2023-01-29T08:56:55;102002.03;;;-0.73;85.43
4576;BME280;2300;51.874;8.430;2023-01-29T08:59:21;102001.75;;;-0.70;85.39
4576;BME280;2300;51.874;8.430;2023-01-29T09:01:47;101998.78;;;-0.67;85.21
4576;BME280;2300;51.874;8.430;2023-01-29T09:04:15;101996.09;;;-0.67;85.32
4576;BME280;2300;51.874;8.430;2023-01-29T09:06:42;101981.25;;;-0.72;85.01
4576;BME280;2300;51.874;8.430;2023-01-29T09:09:09;101989.06;;;-0.90;85.16
4576;BME280;2300;51.874;8.430;2023-01-29T09:11:36;101981.91;;;-0.80;85.54
4576;BME280;2300;51.874;8.430;2023-01-29T09:14:02;101975.53;;;-0.79;85.48
4576;BME280;2300;51.874;8.430;2023-01-29T09:16:29;101960.53;;;-0.72;85.64
4576;BME280;2300;51.874;8.430;2023-01-29T09:18:55;101958.16;;;-0.86;85.80
4576;BME280;2300;51.874;8.430;2023-01-29T09:21:23;101963.63;;;-0.76;85.78
4576;BME280;2300;51.874;8.430;2023-01-29T09:23:49;101963.06;;;-0.59;85.35
4576;BME280;2300;51.874;8.430;2023-01-29T09:26:16;101974.81;;;-0.28;84.89
4576;BME280;2300;51.874;8.430;2023-01-29T09:28:42;101972.56;;;-0.23;84.15
4576;BME280;2300;51.874;8.430;2023-01-29T09:31:09;101970.59;;;-0.21;83.62
4576;BME280;2300;51.874;8.430;2023-01-29T09:33:35;101961.25;;;-0.17;83.38
4576;BME280;2300;51.874;8.430;2023-01-29T09:36:02;101956.31;;;-0.33;83.53
4576;BME280;2300;51.874;8.430;2023-01-29T09:38:30;101959.88;;;-0.32;83.34
4576;BME280;2300;51.874;8.430;2023-01-29T09:41:02;101923.56;;;-0.39;83.32
4576;BME280;2300;51.874;8.430;2023-01-29T09:43:39;101962.63;;;-0.23;83.75
4576;BME280;2300;51.874;8.430;2023-01-29T09:46:15;101954.13;;;-0.18;83.15
4576;BME280;2300;51.874;8.430;2023-01-29T09:48:44;101962.22;;;-0.18;83.32
4576;BME280;2300;51.874;8.430;2023-01-29T09:51:19;101962.56;;;-0.11;83.06
4576;BME280;2300;51.874;8.430;2023-01-29T09:53:54;101955.38;;;-0.01;82.85
4576;BME280;2300;51.874;8.430;2023-01-29T09:56:23;101948.53;;;-0.05;83.13
4576;BME280;2300;51.874;8.430;2023-01-29T09:58:56;101952.66;;;-0.01;83.45
4576;BME280;2300;51.874;8.430;2023-01-29T10:01:31;101949.78;;;0.21;82.47
4576;BME280;2300;51.874;8.430;2023-01-29T10:04:25;101955.69;;;0.36;82.11
4576;BME280;2300;51.874;8.430;2023-01-29T10:07:09;101954.69;;;0.37;82.04
4576;BME280;2300;51.874;8.430;2023-01-29T10:10:02;101960.09;;;0.37;82.12
4576;BME280;2300;51.874;8.430;2023-01-29T10:12:45;101942.59;;;0.31;81.96
4576;BME280;2300;51.874;8.430;2023-01-29T10:15:26;101953.44;;;0.41;81.74
4576;BME280;2300;51.874;8.430;2023-01-29T10:18:04;101947.94;;;0.52;81.91
4576;BME280;2300;51.874;8.430;2023-01-29T10:20:45;101938.25;;;0.49;81.54
4576;BME280;2300;51.874;8.430;2023-01-29T10:23:20;101930.53;;;0.45;81.71
4576;BME280;2300;51.874;8.430;2023-01-29T10:25:48;101935.75;;;0.67;81.59
4576;BME280;2300;51.874;8.430;2023-01-29T10:28:17;101927.75;;;0.56;81.78
4576;BME280;2300;51.874;8.430;2023-01-29T10:30:47;101918.38;;;0.70;81.41
4576;BME280;2300;51.874;8.430;2023-01-29T10:33:18;101914.13;;;0.77;81.19
4576;BME280;2300;51.874;8.430;2023-01-29T10:35:49;101912.84;;;0.81;81.17
4576;BME280;2300;51.874;8.430;2023-01-29T10:38:37;101904.44;;;0.74;81.83
4576;BME280;2300;51.874;8.430;2023-01-29T10:41:18;101906.16;;;0.75;82.27
4576;BME280;2300;51.874;8.430;2023-01-29T10:43:53;101897.19;;;0.84;82.03
4576;BME280;2300;51.874;8.430;2023-01-29T10:46:35;101896.31;;;0.74;81.67
4576;BME280;2300;51.874;8.430;2023-01-29T10:49:12;101889.91;;;0.75;82.05
4576;BME280;2300;51.874;8.430;2023-01-29T10:51:54;101881.06;;;0.73;81.96
4576;BME280;2300;51.874;8.430;2023-01-29T10:54:40;101873.38;;;0.69;82.32
4576;BME280;2300;51.874;8.430;2023-01-29T10:57:16;101876.94;;;0.69;82.36
4576;BME280;2300;51.874;8.430;2023-01-29T10:59:55;101861.16;;;0.74;82.25
4576;BME280;2300;51.874;8.430;2023-01-29T11:02:25;101853.91;;;0.84;82.15
4576;BME280;2300;51.874;8.430;2023-01-29T11:04:51;101860.34;;;0.93;82.04
4576;BME280;2300;51.874;8.430;2023-01-29T11:07:20;101860.88;;;1.06;81.68
4576;BME280;2300;51.874;8.430;2023-01-29T11:09:52;101856.34;;;0.97;81.15
4576;BME280;2300;51.874;8.430;2023-01-29T11:12:26;101853.47;;;0.89;81.58
4576;BME280;2300;51.874;8.430;2023-01-29T11:14:58;101849.94;;;0.88;81.63
4576;BME280;2300;51.874;8.430;2023-01-29T11:17:27;101858.59;;;1.11;81.17
4576;BME280;2300;51.874;8.430;2023-01-29T11:19:54;101849.50;;;1.02;81.79
4576;BME280;2300;51.874;8.430;2023-01-29T11:22:21;101845.94;;;0.92;81.57
4576;BME280;2300;51.874;8.430;2023-01-29T11:25:06;101838.38;;;1.05;82.25
4576;BME280;2300;51.874;8.430;2023-01-29T11:27:40;101831.69;;;1.10;81.72
4576;BME280;2300;51.874;8.430;2023-01-29T11:30:14;101816.75;;;0.96;81.40
4576;BME280;2300;51.874;8.430;2023-01-29T11:32:42;101825.28;;;1.11;81.68
4576;BME280;2300;51.874;8.430;2023-01-29T11:35:20;101827.72;;;1.14;81.57
4576;BME280;2300;51.874;8.430;2023-01-29T11:37:47;101809.91;;;1.11;81.57
4576;BME280;2300;51.874;8.430;2023-01-29T11:40:32;101819.59;;;0.94;81.14
4576;BME280;2300;51.874;8.430;2023-01-29T11:43:26;101809.34;;;1.08;81.25
4576;BME280;2300;51.874;8.430;2023-01-29T11:45:55;101814.59;;;0.99;81.33
4576;BME280;2300;51.874;8.430;2023-01-29T11:48:27;101808.50;;;1.07;81.22
4576;BME280;2300;51.874;8.430;2023-01-29T11:50:57;101802.78;;;1.10;81.15
4576;BME280;2300;51.874;8.430;2023-01-29T11:53:35;101805.38;;;1.02;80.67
4576;BME280;2300;51.874;8.430;2023-01-29T11:56:05;101789.69;;;1.05;80.56
4576;BME280;2300;51.874;8.430;2023-01-29T11:58:34;101790.41;;;0.98;80.40
4576;BME280;2300;51.874;8.430;2023-01-29T12:01:01;101786.88;;;0.88;81.09
4576;BME280;2300;51.874;8.430;2023-01-29T12:03:33;101786.88;;;0.97;80.82
4576;BME280;2300;51.874;8.430;2023-01-29T12:06:05;101774.91;;;0.90;81.06
4576;BME280;2300;51.874;8.430;2023-01-29T12:08:35;101769.78;;;0.97;81.35
4576;BME280;2300;51.874;8.430;2023-01-29T12:11:11;101764.50;;;0.95;80.98
4576;BME280;2300;51.874;8.430;2023-01-29T12:13:40;101759.78;;;1.07;81.20
4576;BME280;2300;51.874;8.430;2023-01-29T12:16:16;101747.53;;;1.13;80.84
4576;BME280;2300;51.874;8.430;2023-01-29T12:18:48;101760.66;;;1.08;80.82
4576;BME280;2300;51.874;8.430;2023-01-29T12:21:20;101734.47;;;0.98;80.83
4576;BME280;2300;51.874;8.430;2023-01-29T12:23:54;101741.81;;;1.16;80.42
4576;BME280;2300;51.874;8.430;2023-01-29T12:26:27;101736.09;;;1.28;80.40
4576;BME280;2300;51.874;8.430;2023-01-29T12:29:10;101740.94;;;1.34;80.52
4576;BME280;2300;51.874;8.430;2023-01-29T12:31:43;101733.66;;;1.35;79.76
4576;BME280;2300;51.874;8.430;2023-01-29T12:34:15;101729.00;;;1.18;80.12
4576;BME280;2300;51.874;8.430;2023-01-29T12:36:47;101722.41;;;1.30;79.72
4576;BME280;2300;51.874;8.430;2023-01-29T12:39:18;101704.47;;;1.29;79.28
4576;BME280;2300;51.874;8.430;2023-01-29T12:41:48;101707.63;;;1.15;79.59
4576;BME280;2300;51.874;8.430;2023-01-29T12:44:21;101691.59;;;1.03;79.94
4576;BME280;2300;51.874;8.430;2023-01-29T12:46:53;101699.69;;;1.13;80.30
4576;BME280;2300;51.874;8.430;2023-01-29T12:49:24;101694.81;;;1.17;80.01
4576;BME280;2300;51.874;8.430;2023-01-29T12:51:55;101691.41;;;1.15;80.22
4576;BME280;2300;51.874;8.430;2023-01-29T12:54:30;101684.03;;;1.07;80.14
4576;BME280;2300;51.874;8.430;2023-01-29T12:56:59;101686.13;;;1.23;79.96
4576;BME280;2300;51.874;8.430;2023-01-29T12:59:34;101674.75;;;1.19;79.83
4576;BME280;2300;51.874;8.430;2023-01-29T13:02:10;101687.06;;;1.31;79.49
4576;BME280;2300;51.874;8.430;2023-01-29T13:04:43;101674.97;;;1.26;79.96
4576;BME280;2300;51.874;8.430;2023-01-29T13:07:14;101663.59;;;1.22;79.77
4576;BME280;2300;51.874;8.430;2023-01-29T13:09:45;101676.50;;;1.38;79.64
4576;BME280;2300;51.874;8.430;2023-01-29T13:12:15;101681.16;;;1.45;79.52
4576;BME280;2300;51.874;8.430;2023-01-29T13:14:47;101661.97;;;1.39;79.27
4576;BME280;2300;51.874;8.430;2023-01-29T13:17:20;101679.16;;;1.47;78.45
4576;BME280;2300;51.874;8.430;2023-01-29T13:19:51;101675.59;;;1.47;79.10
4576;BME280;2300;51.874;8.430;2023-01-29T13:22:22;101668.44;;;1.28;78.98
4576;BME280;2300;51.874;8.430;2023-01-29T13:24:50;101674.69;;;1.29;79.16
4576;BME280;2300;51.874;8.430;2023-01-29T13:27:23;101656.34;;;1.23;79.20
4576;BME280;2300;51.874;8.430;2023-01-29T13:29:53;101668.56;;;1.27;79.16
4576;BME280;2300;51.874;8.430;2023-01-29T13:32:22;101674.50;;;1.40;79.39
4576;BME280;2300;51.874;8.430;2023-01-29T13:34:51;101670.59;;;1.52;79.41